This is the latest recevied weather packets stored in our database for station/object N8BAP. If no packets are shown the sender has not sent any weather packets the latest 10 day(s).
| Time | Temp. | Humidity | Pressure | Rain* | Wind** | Luminosity | Snow |
|---|---|---|---|---|---|---|---|
| 1777571974 | 11.11° C | 64% | 1020.9 hPa | 0 mm | - | 795 W/m² | - |
| 1777571674 | 11.67° C | 61% | 1021.3 hPa | 0 mm | - | 177 W/m² | - |
| 1777571372 | 11.67° C | 58% | 1021.1 hPa | 0 mm | - | 293 W/m² | - |
| 1777571068 | 12.22° C | 60% | 1020.9 hPa | 0 mm | - | 278 W/m² | - |
| 1777570764 | 12.22° C | 61% | 1021 hPa | 0 mm | - | 716 W/m² | - |
| 1777570461 | 12.22° C | 60% | 1021 hPa | 0 mm | - | 757 W/m² | - |
| 1777570156 | 11.67° C | 62% | 1021.1 hPa | 0 mm | - | 733 W/m² | - |
| 1777569853 | 11.67° C | 60% | 1021.2 hPa | 0 mm | - | 774 W/m² | - |
| 1777569549 | 11.67° C | 64% | 1021.2 hPa | 0 mm | - | 376 W/m² | - |
| 1777569245 | 11.11° C | 64% | 1021.2 hPa | 0 mm | - | 822 W/m² | - |
| 1777568942 | 10.56° C | 71% | 1021.3 hPa | 0 mm | - | 803 W/m² | - |
| 1777568638 | 10.56° C | 71% | 1021.4 hPa | 0 mm | - | 295 W/m² | - |
| 1777568336 | 10.56° C | 69% | 1021.4 hPa | 0 mm | - | 252 W/m² | - |
| 1777568032 | 10.56° C | 68% | 1021.3 hPa | 0 mm | - | 259 W/m² | - |
| 1777567729 | 10.56° C | 68% | 1021.2 hPa | 0 mm | - | 229 W/m² | - |
| 1777567425 | 11.11° C | 68% | 1021.4 hPa | 0 mm | - | 224 W/m² | - |
| 1777567124 | 10.56° C | 69% | 1021.4 hPa | 0 mm | - | 844 W/m² | - |
| 1777566821 | 11.11° C | 72% | 1021.4 hPa | 0 mm | - | 343 W/m² | - |
| 1777566519 | 11.11° C | 71% | 1021.4 hPa | 0 mm | - | 232 W/m² | - |
| 1777566216 | 11.67° C | 72% | 1021.4 hPa | 0 mm | - | 495 W/m² | - |
| 1777565913 | 10.56° C | 73% | 1021.4 hPa | 0 mm | - | 939 W/m² | - |
| 1777565608 | 10.56° C | 71% | 1021.5 hPa | 0 mm | - | 259 W/m² | - |
| 1777565305 | 10° C | 75% | 1021.4 hPa | 0 mm | - | 767 W/m² | - |
| 1777565001 | 11.11° C | 68% | 1021.4 hPa | 0 mm | - | 184 W/m² | - |
| 1777564696 | 10.56° C | 73% | 1021.4 hPa | 0 mm | - | 1032 W/m² | - |
* Rain latest hour (hover to see other rain measurements)
** Current wind speed in m/s (hover to see current wind gust speed)